CDT,Max TemperatureF,Mean TemperatureF,Min TemperatureF,Max Dew PointF,MeanDew PointF,Min DewpointF,Max Humidity, Mean Humidity, Min Humidity, Max Sea Level PressureIn, Mean Sea Level PressureIn, Min Sea Level PressureIn, Max VisibilityMiles, Mean VisibilityMiles, Min VisibilityMiles, Max Wind SpeedMPH, Mean Wind SpeedMPH, Max Gust SpeedMPH,PrecipitationIn, CloudCover, Events, WindDirDegrees
2013-8-1,87,76,64,72,66,62,100,72,43,30.10,30.05,29.93,10,6,0,14,4,20,0.23,3,Fog-Rain-Thunderstorm,194
2013-8-2,85,76,66,70,67,62,93,76,59,30.01,29.90,29.84,10,10,5,18,7,23,0.32,4,Rain,134
2013-8-3,86,76,66,70,64,57,93,72,51,30.13,30.05,29.95,10,10,10,14,8,20,0.00,3,,51
2013-8-4,75,71,67,68,63,56,90,74,57,30.16,30.09,30.02,10,10,4,13,6,16,0.08,7,Rain,113
2013-8-5,84,77,69,73,70,66,100,83,65,30.04,29.93,29.81,10,9,6,14,4,17,0.00,6,,152
2013-8-6,88,79,69,75,72,69,100,82,63,29.89,29.83,29.78,10,9,4,14,4,64,0.00,2,,195
2013-8-7,89,78,66,74,70,62,100,76,51,29.96,29.87,29.77,10,10,10,14,5,16,0.00,3,Thunderstorm,6
2013-8-8,76,71,66,67,64,62,90,80,69,30.01,29.98,29.94,10,10,10,12,4,16,0.00,1,,52
2013-8-9,82,74,65,69,66,63,100,77,54,30.11,30.04,30.00,10,10,7,8,2,10,0.00,2,,337
2013-8-10,84,72,60,65,61,56,93,67,40,30.20,30.14,30.08,10,9,1,13,3,18,0.00,1,,41
2013-8-11,86,72,58,69,62,57,93,74,55,30.13,30.09,30.00,10,7,0,12,3,47,0.00,0,Fog,198
2013-8-12,86,76,65,72,68,63,100,79,58,30.05,30.01,29.94,10,8,0,23,3,30,0.12,4,Fog-Rain-Thunderstorm,325
2013-8-13,82,72,62,66,61,57,100,73,45,30.14,30.08,30.04,10,7,0,13,5,16,0.00,2,Fog,8
2013-8-14,79,69,59,57,55,53,84,63,42,30.20,30.14,30.09,10,10,10,9,4,36,0.00,1,,133
2013-8-15,71,66,61,62,58,55,93,81,68,30.16,30.10,30.04,10,8,2,14,6,17,0.51,6,Rain,150
2013-8-16,77,67,57,61,56,54,93,70,46,30.17,30.13,30.09,10,10,10,12,4,15,0.00,5,,103
2013-8-17,80,66,52,60,55,51,100,70,39,30.21,30.16,30.11,10,10,5,12,3,16,0.00,1,,155
2013-8-18,82,67,51,62,56,51,100,76,51,30.18,30.14,30.06,10,4,0,12,3,15,0.00,2,Fog,169
2013-8-19,84,71,57,67,60,55,100,76,51,30.10,30.07,29.98,10,4,0,16,5,20,0.00,2,Fog,181
2013-8-20,89,77,65,67,66,63,93,70,46,30.04,29.99,29.95,10,10,5,16,8,21,0.00,0,,188
2013-8-21,89,77,64,70,67,62,93,73,52,30.04,30.00,29.96,10,10,7,13,6,16,0.00,0,,173
2013-8-22,90,79,67,72,69,65,97,75,52,30.07,30.03,30.00,10,9,5,14,2,16,0.00,0,,179
2013-8-23,91,78,65,72,67,64,100,74,47,30.09,30.05,29.99,10,6,0,16,5,21,0.00,2,Fog,154
2013-8-24,92,80,68,72,69,66,93,71,49,30.11,30.07,30.03,10,10,8,16,7,21,0.00,0,,173
2013-8-25,93,82,70,73,70,67,90,70,49,30.17,30.12,30.08,10,9,7,15,8,18,0.00,0,,182
2013-8-26,95,82,69,72,70,67,93,70,46,30.13,30.07,30.01,10,10,6,16,8,21,0.00,0,,201
2013-8-27,94,83,71,70,68,64,90,66,41,30.03,29.98,29.93,10,10,10,20,9,24,0.00,0,,204
2013-8-28,93,78,63,72,68,62,93,67,41,30.02,29.99,29.97,10,10,7,15,4,20,0.00,0,,204
2013-8-29,95,82,69,74,70,66,93,70,46,30.01,29.97,29.90,10,10,10,14,5,18,0.00,1,,185
2013-8-30,99,84,68,74,70,64,87,61,35,29.93,29.86,29.79,10,10,10,13,4,16,0.00,0,,207
2013-8-31,89,80,70,75,72,68,93,78,63,29.87,29.81,29.77,10,10,7,12,3,14,T,0,Rain,323